Falls International Airport
KINL : now visible

Airfield :











YOU CAN JOIN US ON...

 
LOGIN :

Register | Disclaimer

   EN    FR    IT 

 









Legend :    VFR   Marginal VFR   IFR   Intensive IFR   Very Intensive IFR
Visi :
Ceiling :
>= 8 km
>= 3000ft
5 to 8 km
1000 to 3000 ft
1500m to 5 km
500 to 1000 ft
800 to 1500m
200 to 500 ft
< 800m
< 200 ft
Symbols :   Thunderstorms  Fog  Heavy snow  Heavy precipitations  Wind > 20 kt






- Airport Elevation : 1185 ft
- IATA code : INL


KINL - Falls International

CURRENT METAR :
  • 201354Z AUTO 12006KT 10SM OVC080 13/11 A2985 RMK AO2 RAE30 SLP114 P0000 T01330106

EXPIRED METARs :
  • 201254Z AUTO 12006KT 10SM -RA SCT080 BKN100 OVC120 11/09 A2985 RMK AO2 SLP115 P0003 T01060094
  • 201154Z AUTO 13005KT 10SM -RA FEW060 OVC085 11/09 A2985 RMK AO2 SLP112 P0000 60001 70001 T01060089 10117 20100 53004 $
  • 201054Z AUTO 13007KT 10SM -RA BKN060 OVC090 11/08 A2984 RMK AO2 RAB16 SLP107 P0001 T01060083 $
  • 200954Z AUTO 13006KT 10SM OVC065 11/08 A2983 RMK AO2 SLP106 T01060083 $

TAF KINL
Valid from the 20 at 12:00 until the 21 at 12:00 UTC


201140Z 2012/2112 13007KT 6SM -SHRA BR OVC050
FM201500 09006KT P6SM VCSH OVC025
FM202100 32006KT P6SM OVC040
FM210900 VRB03KT 4SM BR SCT100
KZMP FIR / North America



MET'MAP, your aeronautical weather chart ! - Copyright ORBIFLY December 2007 - Disclaimer

ORBIFLY MET'MAP TEAM :

Programming & Development : Alexandra Zaïnal
Original concept : Baudouin d'Aumeries
Technical & hardware support : Manuel Goepfert
Assistance : Marc-Olivier Méhu




SOURCES & CREDITS :

   NOAA       Earth
Advisory